Sublime — SUBLIME — position and weather

sailwx.info

Track history (hours):
 
Tides and Currents Weather Stations Pressure Air Temp Water Temp Dewpoint Dewpoint Depression Visibility Wind Speed Wind Dir Waves Ship Positions

Sublime

Last reported at 2018-Jun-17 04:49 UTC. Time now 2018-Jun-18 13:27 UTC.
Position S 27°58' E 153°26'.

Length 12 m.

Type: Pleasure craft. MMSI: 503022010.

Date/timePositionNaut miles runAvg speedWind from/ knotsBaromVisibWave heightAir tempDewpointWater temp
2018-Jun-17 04:49S 27°58' E 153°26'0 0.0
2018-Jun-17 04:25S 27°58' E 153°26'0 0.0
2018-Jun-17 02:19S 27°58' E 153°26'0 0.0
2018-Jun-17 01:58S 27°58' E 153°26'0 0.0
2018-Jun-17 01:04S 27°58' E 153°26'0 0.0
2018-Jun-17 00:07S 27°58' E 153°26'0 0.0
2018-Jun-16 23:58S 27°58' E 153°26'0 0.0
2018-Jun-16 23:28S 27°58' E 153°26'0 0.0
2018-Jun-16 22:52S 27°58' E 153°26'0 0.0
2018-Jun-16 22:22S 27°58' E 153°26'0 0.0
2018-Jun-16 16:55S 27°58' E 153°26'0 0.0
2018-Jun-16 14:19S 27°58' E 153°26'0 0.0
2018-Jun-16 13:52S 27°58' E 153°26'0 0.0
2018-Jun-16 13:22S 27°58' E 153°26'0 0.0
2018-Jun-16 12:58S 27°58' E 153°26'0 0.0
2018-Jun-16 12:22S 27°58' E 153°26'0 0.0
2018-Jun-16 11:52S 27°58' E 153°26'0 0.0
2018-Jun-16 01:22S 27°58' E 153°26'0 0.0
2018-Jun-16 00:52S 27°58' E 153°26'0 0.0
2018-Jun-15 21:22S 27°58' E 153°26'0 0.0
2018-Jun-15 16:28S 27°58' E 153°26'0 0.0
2018-Jun-15 12:40S 27°58' E 153°26'0 0.0
2018-Jun-15 07:46S 27°58' E 153°26'0 0.0
2018-Jun-15 07:28S 27°58' E 153°26'0 0.0
2018-Jun-15 06:58S 27°58' E 153°26'0 0.0
2018-Jun-15 06:16S 27°58' E 153°26'0 0.0
2018-Jun-15 05:58S 27°58' E 153°26'0 0.0
2018-Jun-15 05:28S 27°58' E 153°26'0 0.0
2018-Jun-15 01:58S 27°58' E 153°26'0 0.0
2018-Jun-15 01:22S 27°58' E 153°26'0 0.0
2018-Jun-15 00:46S 27°58' E 153°26'0 0.0
2018-Jun-15 00:22S 27°58' E 153°26'0 0.0
2018-Jun-14 23:52S 27°58' E 153°26'0 0.0
2018-Jun-14 23:04S 27°58' E 153°26'0 0.0
2018-Jun-14 22:49S 27°58' E 153°26'0 0.0
2018-Jun-14 22:10S 27°58' E 153°26'0 0.0
2018-Jun-14 20:55S 27°58' E 153°26'0 0.0
2018-Jun-14 20:22S 27°58' E 153°26'0 0.0
2018-Jun-14 16:46S 27°58' E 153°26'0 0.0
2018-Jun-14 16:22S 27°58' E 153°26'0 0.0
2018-Jun-14 15:55S 27°58' E 153°26'0 0.0
2018-Jun-14 14:55S 27°58' E 153°26'0 0.0
2018-Jun-13 11:37S 27°58' E 153°26'0 0.0
2018-Jun-13 11:25S 27°58' E 153°26'0 0.0
2018-Jun-13 10:52S 27°58' E 153°26'0 0.0
2018-Jun-12 21:58S 27°58' E 153°26'0 0.0
2018-Jun-12 18:58S 27°58' E 153°26'0 0.0
2018-Jun-12 18:16S 27°58' E 153°26'0 0.0
2018-Jun-12 17:43S 27°58' E 153°26'0 0.0
2018-Jun-11 17:55S 27°58' E 153°26'0 0.0
2018-Jun-11 17:10S 27°58' E 153°26'0 0.0
2018-Jun-11 16:55S 27°58' E 153°26'0 0.0
2018-Jun-11 16:25S 27°58' E 153°26'0 0.0
2018-Jun-11 15:58S 27°58' E 153°26'49 1.4
2018-Jun-10 05:37S 27°13' E 153°06'0 0.0
2018-Jun-10 05:28S 27°13' E 153°06'0 0.0
2018-Jun-10 04:58S 27°13' E 153°06'0 0.0
2018-Jun-10 04:28S 27°13' E 153°06'2 3.8
2018-Jun-10 04:00S 27°11' E 153°06'3 6.3
2018-Jun-10 03:29S 27°13' E 153°09'25 6.8
2018-Jun-09 23:51S 27°34' E 153°24'3 7.4
2018-Jun-09 23:26S 27°37' E 153°24'2 3.9
2018-Jun-09 22:58S 27°38' E 153°25'2014.2
2018-Jun-09 21:34S 27°58' E 153°26'0 0.0
2018-Jun-09 21:10S 27°58' E 153°26'0 0.0
2018-Jun-09 20:58S 27°58' E 153°26'0 0.0
2018-Jun-09 16:40S 27°58' E 153°26'0 0.0
2018-Jun-09 16:28S 27°58' E 153°26'0 0.0
2018-Jun-09 14:31S 27°58' E 153°26'0 0.0
2018-Jun-09 14:25S 27°58' E 153°26'0 0.0
2018-Jun-09 13:58S 27°58' E 153°26'0 0.0
2018-Jun-09 09:49S 27°58' E 153°26'0 0.0
2018-Jun-09 09:28S 27°58' E 153°26'0 0.0
2018-Jun-09 08:58S 27°58' E 153°26'0 0.0
2018-Jun-09 08:28S 27°58' E 153°26'20 3.6
2018-Jun-09 02:57S 27°38' E 153°25'0 0.0
2018-Jun-09 02:27S 27°38' E 153°25'1 2.3
2018-Jun-09 02:00S 27°38' E 153°24'21 6.7
2018-Jun-08 22:55S 27°58' E 153°26'  
Track history (hours):
 
Tides and Currents Weather Stations Pressure Air Temp Water Temp Dewpoint Dewpoint Depression Visibility Wind Speed Wind Dir Waves Ship Positions

Sublime

Last reported at 2018-Jun-17 04:49 UTC. Time now 2018-Jun-18 13:27 UTC.
Position S 27°58' E 153°26'.

Length 12 m.

Type: Pleasure craft. MMSI: 503022010.

Date/timePositionNaut miles runAvg speedWind from/ knotsBaromVisibWave heightAir tempDewpointWater temp
2018-Jun-17 04:49S 27°58' E 153°26'0 0.0
2018-Jun-17 04:25S 27°58' E 153°26'0 0.0
2018-Jun-17 02:19S 27°58' E 153°26'0 0.0
2018-Jun-17 01:58S 27°58' E 153°26'0 0.0
2018-Jun-17 01:04S 27°58' E 153°26'0 0.0
2018-Jun-17 00:07S 27°58' E 153°26'0 0.0
2018-Jun-16 23:58S 27°58' E 153°26'0 0.0
2018-Jun-16 23:28S 27°58' E 153°26'0 0.0
2018-Jun-16 22:52S 27°58' E 153°26'0 0.0
2018-Jun-16 22:22S 27°58' E 153°26'0 0.0
2018-Jun-16 16:55S 27°58' E 153°26'0 0.0
2018-Jun-16 14:19S 27°58' E 153°26'0 0.0
2018-Jun-16 13:52S 27°58' E 153°26'0 0.0
2018-Jun-16 13:22S 27°58' E 153°26'0 0.0
2018-Jun-16 12:58S 27°58' E 153°26'0 0.0
2018-Jun-16 12:22S 27°58' E 153°26'0 0.0
2018-Jun-16 11:52S 27°58' E 153°26'0 0.0
2018-Jun-16 01:22S 27°58' E 153°26'0 0.0
2018-Jun-16 00:52S 27°58' E 153°26'0 0.0
2018-Jun-15 21:22S 27°58' E 153°26'0 0.0
2018-Jun-15 16:28S 27°58' E 153°26'0 0.0
2018-Jun-15 12:40S 27°58' E 153°26'0 0.0
2018-Jun-15 07:46S 27°58' E 153°26'0 0.0
2018-Jun-15 07:28S 27°58' E 153°26'0 0.0
2018-Jun-15 06:58S 27°58' E 153°26'0 0.0
2018-Jun-15 06:16S 27°58' E 153°26'0 0.0
2018-Jun-15 05:58S 27°58' E 153°26'0 0.0
2018-Jun-15 05:28S 27°58' E 153°26'0 0.0
2018-Jun-15 01:58S 27°58' E 153°26'0 0.0
2018-Jun-15 01:22S 27°58' E 153°26'0 0.0
2018-Jun-15 00:46S 27°58' E 153°26'0 0.0
2018-Jun-15 00:22S 27°58' E 153°26'0 0.0
2018-Jun-14 23:52S 27°58' E 153°26'0 0.0
2018-Jun-14 23:04S 27°58' E 153°26'0 0.0
2018-Jun-14 22:49S 27°58' E 153°26'0 0.0
2018-Jun-14 22:10S 27°58' E 153°26'0 0.0
2018-Jun-14 20:55S 27°58' E 153°26'0 0.0
2018-Jun-14 20:22S 27°58' E 153°26'0 0.0
2018-Jun-14 16:46S 27°58' E 153°26'0 0.0
2018-Jun-14 16:22S 27°58' E 153°26'0 0.0
2018-Jun-14 15:55S 27°58' E 153°26'0 0.0
2018-Jun-14 14:55S 27°58' E 153°26'0 0.0
2018-Jun-13 11:37S 27°58' E 153°26'0 0.0
2018-Jun-13 11:25S 27°58' E 153°26'0 0.0
2018-Jun-13 10:52S 27°58' E 153°26'0 0.0
2018-Jun-12 21:58S 27°58' E 153°26'0 0.0
2018-Jun-12 18:58S 27°58' E 153°26'0 0.0
2018-Jun-12 18:16S 27°58' E 153°26'0 0.0
2018-Jun-12 17:43S 27°58' E 153°26'0 0.0
2018-Jun-11 17:55S 27°58' E 153°26'0 0.0
2018-Jun-11 17:10S 27°58' E 153°26'0 0.0
2018-Jun-11 16:55S 27°58' E 153°26'0 0.0
2018-Jun-11 16:25S 27°58' E 153°26'0 0.0
2018-Jun-11 15:58S 27°58' E 153°26'49 1.4
2018-Jun-10 05:37S 27°13' E 153°06'0 0.0
2018-Jun-10 05:28S 27°13' E 153°06'0 0.0
2018-Jun-10 04:58S 27°13' E 153°06'0 0.0
2018-Jun-10 04:28S 27°13' E 153°06'2 3.8
2018-Jun-10 04:00S 27°11' E 153°06'3 6.3
2018-Jun-10 03:29S 27°13' E 153°09'25 6.8
2018-Jun-09 23:51S 27°34' E 153°24'3 7.4
2018-Jun-09 23:26S 27°37' E 153°24'2 3.9
2018-Jun-09 22:58S 27°38' E 153°25'2014.2
2018-Jun-09 21:34S 27°58' E 153°26'0 0.0
2018-Jun-09 21:10S 27°58' E 153°26'0 0.0
2018-Jun-09 20:58S 27°58' E 153°26'0 0.0
2018-Jun-09 16:40S 27°58' E 153°26'0 0.0
2018-Jun-09 16:28S 27°58' E 153°26'0 0.0
2018-Jun-09 14:31S 27°58' E 153°26'0 0.0
2018-Jun-09 14:25S 27°58' E 153°26'0 0.0
2018-Jun-09 13:58S 27°58' E 153°26'0 0.0
2018-Jun-09 09:49S 27°58' E 153°26'0 0.0
2018-Jun-09 09:28S 27°58' E 153°26'0 0.0
2018-Jun-09 08:58S 27°58' E 153°26'0 0.0
2018-Jun-09 08:28S 27°58' E 153°26'20 3.6
2018-Jun-09 02:57S 27°38' E 153°25'0 0.0
2018-Jun-09 02:27S 27°38' E 153°25'1 2.3
2018-Jun-09 02:00S 27°38' E 153°24'21 6.7
2018-Jun-08 22:55S 27°58' E 153°26'  

Dump ship's entire track history